Terminal Aerodrome Forecast
Issued by NWS

Home | Current Version | Previous Version | Text Only | Print | Product List | Glossary On
Versions: 1 2 3 4 5 6 7 8 9 10 11 12 13 14 15 16 17 18
000
FTUS43 KAPX 061120
TAFTVC
TAF
KTVC 061120Z 0612/0712 10004KT P6SM OVC120
     FM061500 13004KT P6SM BKN025 BKN100
     FM061800 05007KT P6SM SCT040 SCT080
     FM070100 09003KT P6SM BKN100
     FM070800 13003KT 4SM BR SCT002=

USA.gov is the U.S. government's official web portal to all federal, state and local government web resources and services.